sensor_id;sensor_type;location;lat;lon;timestamp;temperature;humidity
13409;DHT22;6775;49.574;11.170;2024-03-07T00:01:50;3.90;99.90
13409;DHT22;6775;49.574;11.170;2024-03-07T00:04:19;3.90;99.90
13409;DHT22;6775;49.574;11.170;2024-03-07T00:06:48;3.90;99.90
13409;DHT22;6775;49.574;11.170;2024-03-07T00:09:16;3.80;99.90
13409;DHT22;6775;49.574;11.170;2024-03-07T00:11:45;3.80;99.90
13409;DHT22;6775;49.574;11.170;2024-03-07T00:14:13;3.80;99.90
13409;DHT22;6775;49.574;11.170;2024-03-07T00:16:42;3.80;99.90
13409;DHT22;6775;49.574;11.170;2024-03-07T00:19:10;3.80;99.90
13409;DHT22;6775;49.574;11.170;2024-03-07T00:21:41;3.90;99.90
13409;DHT22;6775;49.574;11.170;2024-03-07T00:24:11;4.00;99.90
13409;DHT22;6775;49.574;11.170;2024-03-07T00:26:40;3.90;99.90
13409;DHT22;6775;49.574;11.170;2024-03-07T00:29:08;3.90;99.90
13409;DHT22;6775;49.574;11.170;2024-03-07T00:31:37;4.00;99.90
13409;DHT22;6775;49.574;11.170;2024-03-07T00:34:05;4.00;99.90
13409;DHT22;6775;49.574;11.170;2024-03-07T00:36:42;4.00;99.90
13409;DHT22;6775;49.574;11.170;2024-03-07T00:39:12;4.00;99.90
13409;DHT22;6775;49.574;11.170;2024-03-07T00:41:41;3.90;99.90
13409;DHT22;6775;49.574;11.170;2024-03-07T00:44:09;3.80;99.90
13409;DHT22;6775;49.574;11.170;2024-03-07T00:46:37;3.90;99.90
13409;DHT22;6775;49.574;11.170;2024-03-07T00:49:06;3.90;99.90
13409;DHT22;6775;49.574;11.170;2024-03-07T00:51:34;3.80;99.90
13409;DHT22;6775;49.574;11.170;2024-03-07T00:54:04;3.80;99.90
13409;DHT22;6775;49.574;11.170;2024-03-07T00:56:34;3.80;99.90
13409;DHT22;6775;49.574;11.170;2024-03-07T00:59:03;3.80;99.90
13409;DHT22;6775;49.574;11.170;2024-03-07T01:01:32;3.80;99.90
13409;DHT22;6775;49.574;11.170;2024-03-07T01:04:03;3.70;99.90
13409;DHT22;6775;49.574;11.170;2024-03-07T01:06:32;3.70;99.90
13409;DHT22;6775;49.574;11.170;2024-03-07T01:09:00;3.70;99.90
13409;DHT22;6775;49.574;11.170;2024-03-07T01:11:28;3.60;99.90
13409;DHT22;6775;49.574;11.170;2024-03-07T01:13:58;3.60;99.90
13409;DHT22;6775;49.574;11.170;2024-03-07T01:16:26;3.60;99.90
13409;DHT22;6775;49.574;11.170;2024-03-07T01:18:54;3.50;99.90
13409;DHT22;6775;49.574;11.170;2024-03-07T01:21:23;3.50;99.90
13409;DHT22;6775;49.574;11.170;2024-03-07T01:23:52;3.70;99.90
13409;DHT22;6775;49.574;11.170;2024-03-07T01:26:21;3.50;99.90
13409;DHT22;6775;49.574;11.170;2024-03-07T01:28:50;3.70;99.90
13409;DHT22;6775;49.574;11.170;2024-03-07T01:31:20;3.40;99.90
13409;DHT22;6775;49.574;11.170;2024-03-07T01:33:49;3.40;99.90
13409;DHT22;6775;49.574;11.170;2024-03-07T01:36:18;3.40;99.90
13409;DHT22;6775;49.574;11.170;2024-03-07T01:38:47;3.40;99.90
13409;DHT22;6775;49.574;11.170;2024-03-07T01:41:16;3.40;99.90
13409;DHT22;6775;49.574;11.170;2024-03-07T01:43:44;3.40;99.90
13409;DHT22;6775;49.574;11.170;2024-03-07T01:46:13;3.50;99.90
13409;DHT22;6775;49.574;11.170;2024-03-07T01:48:43;3.50;99.90
13409;DHT22;6775;49.574;11.170;2024-03-07T01:51:12;3.50;99.90
13409;DHT22;6775;49.574;11.170;2024-03-07T01:53:40;3.50;99.90
13409;DHT22;6775;49.574;11.170;2024-03-07T01:56:08;3.40;99.90
13409;DHT22;6775;49.574;11.170;2024-03-07T01:58:37;3.40;99.90
13409;DHT22;6775;49.574;11.170;2024-03-07T02:01:05;3.30;99.90
13409;DHT22;6775;49.574;11.170;2024-03-07T02:03:35;3.40;99.90
13409;DHT22;6775;49.574;11.170;2024-03-07T02:06:05;3.40;99.90
13409;DHT22;6775;49.574;11.170;2024-03-07T02:08:34;3.40;99.90
13409;DHT22;6775;49.574;11.170;2024-03-07T02:11:03;3.40;99.90
13409;DHT22;6775;49.574;11.170;2024-03-07T02:13:31;3.30;99.90
13409;DHT22;6775;49.574;11.170;2024-03-07T02:16:00;3.40;99.90
13409;DHT22;6775;49.574;11.170;2024-03-07T02:18:28;3.40;99.90
13409;DHT22;6775;49.574;11.170;2024-03-07T02:20:58;3.30;99.90
13409;DHT22;6775;49.574;11.170;2024-03-07T02:23:27;3.40;99.90
13409;DHT22;6775;49.574;11.170;2024-03-07T02:25:55;3.40;99.90
13409;DHT22;6775;49.574;11.170;2024-03-07T02:28:23;3.40;99.90
13409;DHT22;6775;49.574;11.170;2024-03-07T02:30:52;3.40;99.90
13409;DHT22;6775;49.574;11.170;2024-03-07T02:33:20;3.40;99.90
13409;DHT22;6775;49.574;11.170;2024-03-07T02:35:50;3.30;99.90
13409;DHT22;6775;49.574;11.170;2024-03-07T02:38:20;3.30;99.90
13409;DHT22;6775;49.574;11.170;2024-03-07T02:40:48;3.10;99.90
13409;DHT22;6775;49.574;11.170;2024-03-07T02:43:17;3.10;99.90
13409;DHT22;6775;49.574;11.170;2024-03-07T02:45:45;3.00;99.90
13409;DHT22;6775;49.574;11.170;2024-03-07T02:48:13;3.00;99.90
13409;DHT22;6775;49.574;11.170;2024-03-07T02:50:42;2.90;99.90
13409;DHT22;6775;49.574;11.170;2024-03-07T02:53:10;2.90;99.90
13409;DHT22;6775;49.574;11.170;2024-03-07T02:55:40;2.80;99.90
13409;DHT22;6775;49.574;11.170;2024-03-07T02:58:08;2.80;99.90
13409;DHT22;6775;49.574;11.170;2024-03-07T03:00:37;2.80;99.90
13409;DHT22;6775;49.574;11.170;2024-03-07T03:03:05;2.80;99.90
13409;DHT22;6775;49.574;11.170;2024-03-07T03:05:33;2.80;99.90
13409;DHT22;6775;49.574;11.170;2024-03-07T03:08:01;2.80;99.90
13409;DHT22;6775;49.574;11.170;2024-03-07T03:10:33;2.80;99.90
13409;DHT22;6775;49.574;11.170;2024-03-07T03:13:04;2.70;99.90
13409;DHT22;6775;49.574;11.170;2024-03-07T03:15:33;2.80;99.90
13409;DHT22;6775;49.574;11.170;2024-03-07T03:18:02;2.80;99.90
13409;DHT22;6775;49.574;11.170;2024-03-07T03:20:32;2.80;99.90
13409;DHT22;6775;49.574;11.170;2024-03-07T03:23:03;2.80;99.90
13409;DHT22;6775;49.574;11.170;2024-03-07T03:25:46;2.70;99.90
13409;DHT22;6775;49.574;11.170;2024-03-07T03:28:17;2.60;99.90
13409;DHT22;6775;49.574;11.170;2024-03-07T03:30:48;2.50;99.90
13409;DHT22;6775;49.574;11.170;2024-03-07T03:33:17;2.50;99.90
13409;DHT22;6775;49.574;11.170;2024-03-07T03:35:47;2.40;99.90
13409;DHT22;6775;49.574;11.170;2024-03-07T03:38:16;2.40;99.90
13409;DHT22;6775;49.574;11.170;2024-03-07T03:40:46;2.40;99.90
13409;DHT22;6775;49.574;11.170;2024-03-07T03:43:15;2.40;99.90
13409;DHT22;6775;49.574;11.170;2024-03-07T03:45:45;2.30;99.90
13409;DHT22;6775;49.574;11.170;2024-03-07T03:48:14;2.30;99.90
13409;DHT22;6775;49.574;11.170;2024-03-07T03:50:43;2.20;99.90
13409;DHT22;6775;49.574;11.170;2024-03-07T03:53:13;2.20;99.90
13409;DHT22;6775;49.574;11.170;2024-03-07T03:55:41;2.10;99.90
13409;DHT22;6775;49.574;11.170;2024-03-07T03:58:10;2.10;99.90
13409;DHT22;6775;49.574;11.170;2024-03-07T04:00:39;2.00;99.90
13409;DHT22;6775;49.574;11.170;2024-03-07T04:03:08;2.00;99.90
13409;DHT22;6775;49.574;11.170;2024-03-07T04:05:36;2.00;99.90
13409;DHT22;6775;49.574;11.170;2024-03-07T04:08:04;1.90;99.90
13409;DHT22;6775;49.574;11.170;2024-03-07T04:10:34;1.90;99.90
13409;DHT22;6775;49.574;11.170;2024-03-07T04:13:02;1.90;99.90
13409;DHT22;6775;49.574;11.170;2024-03-07T04:15:31;1.90;99.90
13409;DHT22;6775;49.574;11.170;2024-03-07T04:18:04;1.90;99.90
13409;DHT22;6775;49.574;11.170;2024-03-07T04:20:34;1.90;99.90
13409;DHT22;6775;49.574;11.170;2024-03-07T04:23:02;2.00;99.90
13409;DHT22;6775;49.574;11.170;2024-03-07T04:25:34;2.00;99.90
13409;DHT22;6775;49.574;11.170;2024-03-07T04:28:03;2.00;99.90
13409;DHT22;6775;49.574;11.170;2024-03-07T04:30:32;2.00;99.90
13409;DHT22;6775;49.574;11.170;2024-03-07T04:33:01;2.00;99.90
13409;DHT22;6775;49.574;11.170;2024-03-07T04:35:30;2.10;99.90
13409;DHT22;6775;49.574;11.170;2024-03-07T04:37:59;2.10;99.90
13409;DHT22;6775;49.574;11.170;2024-03-07T04:40:27;2.10;99.90
13409;DHT22;6775;49.574;11.170;2024-03-07T04:42:55;2.00;99.90
13409;DHT22;6775;49.574;11.170;2024-03-07T04:45:23;2.10;99.90
13409;DHT22;6775;49.574;11.170;2024-03-07T04:47:52;2.10;99.90
13409;DHT22;6775;49.574;11.170;2024-03-07T04:50:20;2.10;99.90
13409;DHT22;6775;49.574;11.170;2024-03-07T04:52:50;2.10;99.90
13409;DHT22;6775;49.574;11.170;2024-03-07T04:55:18;2.20;99.90
13409;DHT22;6775;49.574;11.170;2024-03-07T04:57:47;2.20;99.90
13409;DHT22;6775;49.574;11.170;2024-03-07T05:00:15;2.40;99.90
13409;DHT22;6775;49.574;11.170;2024-03-07T05:02:48;2.50;99.90
13409;DHT22;6775;49.574;11.170;2024-03-07T05:05:18;2.50;99.90
13409;DHT22;6775;49.574;11.170;2024-03-07T05:07:51;2.50;99.90
13409;DHT22;6775;49.574;11.170;2024-03-07T05:10:20;2.50;99.90
13409;DHT22;6775;49.574;11.170;2024-03-07T05:12:48;2.50;99.90
13409;DHT22;6775;49.574;11.170;2024-03-07T05:15:17;2.40;99.90
13409;DHT22;6775;49.574;11.170;2024-03-07T05:17:46;2.30;99.90
13409;DHT22;6775;49.574;11.170;2024-03-07T05:20:14;2.30;99.90
13409;DHT22;6775;49.574;11.170;2024-03-07T05:22:43;2.20;99.90
13409;DHT22;6775;49.574;11.170;2024-03-07T05:25:18;2.20;99.90
13409;DHT22;6775;49.574;11.170;2024-03-07T05:27:47;2.20;99.90
13409;DHT22;6775;49.574;11.170;2024-03-07T05:30:17;2.10;99.90
13409;DHT22;6775;49.574;11.170;2024-03-07T05:32:45;2.00;99.90
13409;DHT22;6775;49.574;11.170;2024-03-07T05:35:15;2.00;99.90
13409;DHT22;6775;49.574;11.170;2024-03-07T05:37:47;2.10;99.90
13409;DHT22;6775;49.574;11.170;2024-03-07T05:40:19;2.10;99.90
13409;DHT22;6775;49.574;11.170;2024-03-07T05:42:47;2.10;99.90
13409;DHT22;6775;49.574;11.170;2024-03-07T05:45:15;2.10;99.90
13409;DHT22;6775;49.574;11.170;2024-03-07T05:47:45;2.10;99.90
13409;DHT22;6775;49.574;11.170;2024-03-07T05:50:14;2.00;99.90
13409;DHT22;6775;49.574;11.170;2024-03-07T05:52:43;1.90;99.90
13409;DHT22;6775;49.574;11.170;2024-03-07T05:55:11;1.90;99.90
13409;DHT22;6775;49.574;11.170;2024-03-07T05:57:44;1.90;99.90
13409;DHT22;6775;49.574;11.170;2024-03-07T06:00:13;2.00;99.90
13409;DHT22;6775;49.574;11.170;2024-03-07T06:02:42;2.10;99.90
13409;DHT22;6775;49.574;11.170;2024-03-07T06:05:11;2.20;99.90
13409;DHT22;6775;49.574;11.170;2024-03-07T06:07:43;2.30;99.90
13409;DHT22;6775;49.574;11.170;2024-03-07T06:10:12;2.30;99.90
13409;DHT22;6775;49.574;11.170;2024-03-07T06:12:44;2.40;99.90
13409;DHT22;6775;49.574;11.170;2024-03-07T06:15:16;2.50;99.90
13409;DHT22;6775;49.574;11.170;2024-03-07T06:17:44;2.50;99.90
13409;DHT22;6775;49.574;11.170;2024-03-07T06:20:13;2.50;99.90
13409;DHT22;6775;49.574;11.170;2024-03-07T06:22:49;2.70;99.90
13409;DHT22;6775;49.574;11.170;2024-03-07T06:25:18;2.80;99.90
13409;DHT22;6775;49.574;11.170;2024-03-07T06:28:01;2.90;99.90
13409;DHT22;6775;49.574;11.170;2024-03-07T06:30:36;3.00;99.90
13409;DHT22;6775;49.574;11.170;2024-03-07T06:33:06;3.00;99.90
13409;DHT22;6775;49.574;11.170;2024-03-07T06:35:35;3.00;99.90
13409;DHT22;6775;49.574;11.170;2024-03-07T06:38:04;2.90;99.90
13409;DHT22;6775;49.574;11.170;2024-03-07T06:40:33;3.00;99.90
13409;DHT22;6775;49.574;11.170;2024-03-07T06:43:04;2.90;99.90
13409;DHT22;6775;49.574;11.170;2024-03-07T06:45:33;2.90;99.90
13409;DHT22;6775;49.574;11.170;2024-03-07T06:48:02;3.00;99.90
13409;DHT22;6775;49.574;11.170;2024-03-07T06:50:31;3.00;99.90
13409;DHT22;6775;49.574;11.170;2024-03-07T06:53:05;3.00;99.90
13409;DHT22;6775;49.574;11.170;2024-03-07T06:55:35;3.10;99.90
13409;DHT22;6775;49.574;11.170;2024-03-07T06:58:06;3.10;99.90
13409;DHT22;6775;49.574;11.170;2024-03-07T07:00:34;3.20;99.90
13409;DHT22;6775;49.574;11.170;2024-03-07T07:03:05;3.20;99.90
13409;DHT22;6775;49.574;11.170;2024-03-07T07:05:34;3.10;99.90
13409;DHT22;6775;49.574;11.170;2024-03-07T07:08:04;3.10;99.90
13409;DHT22;6775;49.574;11.170;2024-03-07T07:10:33;3.20;99.90
13409;DHT22;6775;49.574;11.170;2024-03-07T07:13:02;3.20;99.90
13409;DHT22;6775;49.574;11.170;2024-03-07T07:15:33;3.30;99.90
13409;DHT22;6775;49.574;11.170;2024-03-07T07:18:01;3.40;99.90
13409;DHT22;6775;49.574;11.170;2024-03-07T07:20:30;3.60;99.90
13409;DHT22;6775;49.574;11.170;2024-03-07T07:23:01;3.60;99.90
13409;DHT22;6775;49.574;11.170;2024-03-07T07:25:30;3.70;99.90
13409;DHT22;6775;49.574;11.170;2024-03-07T07:27:59;3.80;99.90
13409;DHT22;6775;49.574;11.170;2024-03-07T07:30:28;3.80;99.90
13409;DHT22;6775;49.574;11.170;2024-03-07T07:32:58;3.80;99.90
13409;DHT22;6775;49.574;11.170;2024-03-07T07:35:26;3.80;99.90
13409;DHT22;6775;49.574;11.170;2024-03-07T07:37:55;4.00;99.90
13409;DHT22;6775;49.574;11.170;2024-03-07T07:40:24;4.00;99.90
13409;DHT22;6775;49.574;11.170;2024-03-07T07:42:54;4.10;99.90
13409;DHT22;6775;49.574;11.170;2024-03-07T07:45:23;4.20;99.90
13409;DHT22;6775;49.574;11.170;2024-03-07T07:47:53;4.40;99.90
13409;DHT22;6775;49.574;11.170;2024-03-07T07:50:24;4.40;99.90
13409;DHT22;6775;49.574;11.170;2024-03-07T07:52:54;4.40;99.90
13409;DHT22;6775;49.574;11.170;2024-03-07T07:55:24;4.50;99.90
13409;DHT22;6775;49.574;11.170;2024-03-07T07:57:54;4.70;99.90
13409;DHT22;6775;49.574;11.170;2024-03-07T08:00:25;4.50;99.90
13409;DHT22;6775;49.574;11.170;2024-03-07T08:02:57;4.50;99.90
13409;DHT22;6775;49.574;11.170;2024-03-07T08:05:30;4.60;99.90
13409;DHT22;6775;49.574;11.170;2024-03-07T08:08:01;4.60;99.90
13409;DHT22;6775;49.574;11.170;2024-03-07T08:10:33;4.70;99.90
13409;DHT22;6775;49.574;11.170;2024-03-07T08:13:04;4.80;99.90
13409;DHT22;6775;49.574;11.170;2024-03-07T08:15:33;4.80;99.90
13409;DHT22;6775;49.574;11.170;2024-03-07T08:18:02;4.90;99.90
13409;DHT22;6775;49.574;11.170;2024-03-07T08:20:37;5.00;99.90
13409;DHT22;6775;49.574;11.170;2024-03-07T08:23:08;5.00;99.90
13409;DHT22;6775;49.574;11.170;2024-03-07T08:25:38;5.10;99.90
13409;DHT22;6775;49.574;11.170;2024-03-07T08:28:07;5.20;99.90
13409;DHT22;6775;49.574;11.170;2024-03-07T08:30:36;5.30;99.90
13409;DHT22;6775;49.574;11.170;2024-03-07T08:33:04;5.50;99.90
13409;DHT22;6775;49.574;11.170;2024-03-07T08:35:34;5.70;99.90
13409;DHT22;6775;49.574;11.170;2024-03-07T08:38:04;6.00;99.90
13409;DHT22;6775;49.574;11.170;2024-03-07T08:40:32;6.40;99.90
13409;DHT22;6775;49.574;11.170;2024-03-07T08:43:01;7.00;99.90
13409;DHT22;6775;49.574;11.170;2024-03-07T08:45:30;8.30;99.90
13409;DHT22;6775;49.574;11.170;2024-03-07T08:48:02;11.10;99.90
13409;DHT22;6775;49.574;11.170;2024-03-07T08:50:33;11.30;99.90
13409;DHT22;6775;49.574;11.170;2024-03-07T08:53:03;10.70;99.90
13409;DHT22;6775;49.574;11.170;2024-03-07T08:55:32;10.10;99.90
13409;DHT22;6775;49.574;11.170;2024-03-07T08:58:02;9.60;99.90
13409;DHT22;6775;49.574;11.170;2024-03-07T09:00:33;9.10;99.90
13409;DHT22;6775;49.574;11.170;2024-03-07T09:03:05;8.90;99.90
13409;DHT22;6775;49.574;11.170;2024-03-07T09:05:38;8.70;99.90
13409;DHT22;6775;49.574;11.170;2024-03-07T09:08:08;8.60;99.90
13409;DHT22;6775;49.574;11.170;2024-03-07T09:10:36;8.50;99.90
13409;DHT22;6775;49.574;11.170;2024-03-07T09:13:10;8.50;99.90
13409;DHT22;6775;49.574;11.170;2024-03-07T09:15:38;8.30;99.90
13409;DHT22;6775;49.574;11.170;2024-03-07T09:18:07;8.00;99.90
13409;DHT22;6775;49.574;11.170;2024-03-07T09:20:36;7.80;99.90
13409;DHT22;6775;49.574;11.170;2024-03-07T09:23:05;7.70;99.90
13409;DHT22;6775;49.574;11.170;2024-03-07T09:25:35;7.60;99.90
13409;DHT22;6775;49.574;11.170;2024-03-07T09:28:03;7.70;99.90
13409;DHT22;6775;49.574;11.170;2024-03-07T09:30:33;7.80;99.90
13409;DHT22;6775;49.574;11.170;2024-03-07T09:33:04;7.90;99.90
13409;DHT22;6775;49.574;11.170;2024-03-07T09:35:37;8.00;99.90
13409;DHT22;6775;49.574;11.170;2024-03-07T09:38:05;8.00;99.90
13409;DHT22;6775;49.574;11.170;2024-03-07T09:40:35;8.20;99.90
13409;DHT22;6775;49.574;11.170;2024-03-07T09:43:04;10.10;99.90
13409;DHT22;6775;49.574;11.170;2024-03-07T09:45:37;10.10;99.90
13409;DHT22;6775;49.574;11.170;2024-03-07T09:48:10;9.60;99.90
13409;DHT22;6775;49.574;11.170;2024-03-07T09:50:40;9.70;99.90
13409;DHT22;6775;49.574;11.170;2024-03-07T09:53:12;9.90;99.90
13409;DHT22;6775;49.574;11.170;2024-03-07T09:55:44;9.60;99.90
13409;DHT22;6775;49.574;11.170;2024-03-07T09:58:15;9.20;99.90
13409;DHT22;6775;49.574;11.170;2024-03-07T10:00:47;9.40;99.90
13409;DHT22;6775;49.574;11.170;2024-03-07T10:03:20;10.10;99.90
13409;DHT22;6775;49.574;11.170;2024-03-07T10:05:50;11.30;99.90
13409;DHT22;6775;49.574;11.170;2024-03-07T10:08:19;13.80;99.90
13409;DHT22;6775;49.574;11.170;2024-03-07T10:10:52;17.30;92.20
13409;DHT22;6775;49.574;11.170;2024-03-07T10:13:22;19.80;75.70
13409;DHT22;6775;49.574;11.170;2024-03-07T10:15:52;20.30;65.70
13409;DHT22;6775;49.574;11.170;2024-03-07T10:18:26;20.00;61.90
13409;DHT22;6775;49.574;11.170;2024-03-07T10:20:56;18.30;66.50
13409;DHT22;6775;49.574;11.170;2024-03-07T10:23:25;16.50;70.70
13409;DHT22;6775;49.574;11.170;2024-03-07T10:25:55;14.70;74.10
13409;DHT22;6775;49.574;11.170;2024-03-07T10:28:25;13.30;80.80
13409;DHT22;6775;49.574;11.170;2024-03-07T10:30:54;12.20;83.10
13409;DHT22;6775;49.574;11.170;2024-03-07T10:33:27;11.30;88.80
13409;DHT22;6775;49.574;11.170;2024-03-07T10:35:57;10.50;91.60
13409;DHT22;6775;49.574;11.170;2024-03-07T10:38:26;9.90;92.90
13409;DHT22;6775;49.574;11.170;2024-03-07T10:40:56;9.40;95.30
13409;DHT22;6775;49.574;11.170;2024-03-07T10:43:28;9.10;95.50
13409;DHT22;6775;49.574;11.170;2024-03-07T10:46:00;8.80;95.20
13409;DHT22;6775;49.574;11.170;2024-03-07T10:48:38;8.70;96.80
13409;DHT22;6775;49.574;11.170;2024-03-07T10:51:14;8.70;97.40
13409;DHT22;6775;49.574;11.170;2024-03-07T10:53:56;8.70;98.30
13409;DHT22;6775;49.574;11.170;2024-03-07T10:56:47;8.70;99.20
13409;DHT22;6775;49.574;11.170;2024-03-07T10:59:26;8.70;99.90
13409;DHT22;6775;49.574;11.170;2024-03-07T11:01:59;8.60;99.90
13409;DHT22;6775;49.574;11.170;2024-03-07T11:04:55;8.50;99.90
13409;DHT22;6775;49.574;11.170;2024-03-07T11:07:24;8.40;99.90
13409;DHT22;6775;49.574;11.170;2024-03-07T11:09:55;8.40;99.90
13409;DHT22;6775;49.574;11.170;2024-03-07T11:12:26;8.40;99.90
13409;DHT22;6775;49.574;11.170;2024-03-07T11:14:57;8.40;99.90
13409;DHT22;6775;49.574;11.170;2024-03-07T11:17:26;8.40;99.90
13409;DHT22;6775;49.574;11.170;2024-03-07T11:20:18;8.30;99.90
13409;DHT22;6775;49.574;11.170;2024-03-07T11:22:47;8.20;99.90
13409;DHT22;6775;49.574;11.170;2024-03-07T11:25:21;8.10;99.90
13409;DHT22;6775;49.574;11.170;2024-03-07T11:27:56;8.10;99.90
13409;DHT22;6775;49.574;11.170;2024-03-07T11:30:26;8.10;99.90
13409;DHT22;6775;49.574;11.170;2024-03-07T11:32:55;8.10;99.90
13409;DHT22;6775;49.574;11.170;2024-03-07T11:35:31;8.10;99.90
13409;DHT22;6775;49.574;11.170;2024-03-07T11:38:06;8.10;99.90
13409;DHT22;6775;49.574;11.170;2024-03-07T11:40:43;8.00;99.90
13409;DHT22;6775;49.574;11.170;2024-03-07T11:43:15;8.00;99.90
13409;DHT22;6775;49.574;11.170;2024-03-07T11:45:43;8.00;99.90
13409;DHT22;6775;49.574;11.170;2024-03-07T11:48:19;8.00;99.90
13409;DHT22;6775;49.574;11.170;2024-03-07T11:50:49;8.10;99.90
13409;DHT22;6775;49.574;11.170;2024-03-07T11:53:17;8.20;99.90
13409;DHT22;6775;49.574;11.170;2024-03-07T11:55:46;8.20;99.90
13409;DHT22;6775;49.574;11.170;2024-03-07T11:58:17;8.20;99.90
13409;DHT22;6775;49.574;11.170;2024-03-07T12:00:51;8.10;99.90
13409;DHT22;6775;49.574;11.170;2024-03-07T12:03:20;8.10;99.90
13409;DHT22;6775;49.574;11.170;2024-03-07T12:05:50;8.00;99.90
13409;DHT22;6775;49.574;11.170;2024-03-07T12:08:20;7.90;99.90
13409;DHT22;6775;49.574;11.170;2024-03-07T12:10:51;7.90;99.90
13409;DHT22;6775;49.574;11.170;2024-03-07T12:13:26;7.90;99.90
13409;DHT22;6775;49.574;11.170;2024-03-07T12:15:55;7.80;99.90
13409;DHT22;6775;49.574;11.170;2024-03-07T12:18:25;7.80;99.90
13409;DHT22;6775;49.574;11.170;2024-03-07T12:20:55;7.80;99.90
13409;DHT22;6775;49.574;11.170;2024-03-07T12:23:25;7.80;99.90
13409;DHT22;6775;49.574;11.170;2024-03-07T12:26:01;7.90;99.90
13409;DHT22;6775;49.574;11.170;2024-03-07T12:28:32;7.90;99.90
13409;DHT22;6775;49.574;11.170;2024-03-07T12:31:03;7.90;99.90
13409;DHT22;6775;49.574;11.170;2024-03-07T12:33:42;7.90;99.90
13409;DHT22;6775;49.574;11.170;2024-03-07T12:36:14;7.90;99.90
13409;DHT22;6775;49.574;11.170;2024-03-07T12:38:43;8.00;99.90
13409;DHT22;6775;49.574;11.170;2024-03-07T12:41:15;8.00;99.90
13409;DHT22;6775;49.574;11.170;2024-03-07T12:43:46;8.00;99.90
13409;DHT22;6775;49.574;11.170;2024-03-07T12:46:14;8.00;99.90
13409;DHT22;6775;49.574;11.170;2024-03-07T12:48:44;8.10;99.90
13409;DHT22;6775;49.574;11.170;2024-03-07T12:51:14;8.10;99.90
13409;DHT22;6775;49.574;11.170;2024-03-07T12:53:46;8.10;99.90
13409;DHT22;6775;49.574;11.170;2024-03-07T12:56:16;8.00;99.90
13409;DHT22;6775;49.574;11.170;2024-03-07T12:58:48;8.10;99.90
13409;DHT22;6775;49.574;11.170;2024-03-07T13:01:18;8.10;99.90
13409;DHT22;6775;49.574;11.170;2024-03-07T13:03:48;8.10;99.90
13409;DHT22;6775;49.574;11.170;2024-03-07T13:06:17;8.10;99.90
13409;DHT22;6775;49.574;11.170;2024-03-07T13:08:55;8.00;99.90
13409;DHT22;6775;49.574;11.170;2024-03-07T13:11:24;8.00;99.90
13409;DHT22;6775;49.574;11.170;2024-03-07T13:13:58;7.90;99.90
13409;DHT22;6775;49.574;11.170;2024-03-07T13:16:26;7.90;99.90
13409;DHT22;6775;49.574;11.170;2024-03-07T13:18:59;7.90;99.90
13409;DHT22;6775;49.574;11.170;2024-03-07T13:21:31;8.00;99.90
13409;DHT22;6775;49.574;11.170;2024-03-07T13:24:02;7.90;99.90
13409;DHT22;6775;49.574;11.170;2024-03-07T13:26:32;7.90;99.90
13409;DHT22;6775;49.574;11.170;2024-03-07T13:29:02;7.90;99.90
13409;DHT22;6775;49.574;11.170;2024-03-07T13:31:31;7.90;99.90
13409;DHT22;6775;49.574;11.170;2024-03-07T13:34:00;7.90;99.90
13409;DHT22;6775;49.574;11.170;2024-03-07T13:36:29;7.90;99.90
13409;DHT22;6775;49.574;11.170;2024-03-07T13:38:58;7.90;99.90
13409;DHT22;6775;49.574;11.170;2024-03-07T13:41:26;7.80;99.90
13409;DHT22;6775;49.574;11.170;2024-03-07T13:43:55;7.80;99.90
13409;DHT22;6775;49.574;11.170;2024-03-07T13:46:27;7.80;99.90
13409;DHT22;6775;49.574;11.170;2024-03-07T13:48:58;7.80;99.90
13409;DHT22;6775;49.574;11.170;2024-03-07T13:51:34;7.80;99.90
13409;DHT22;6775;49.574;11.170;2024-03-07T13:54:03;7.80;99.90
13409;DHT22;6775;49.574;11.170;2024-03-07T13:57:01;7.80;99.90
13409;DHT22;6775;49.574;11.170;2024-03-07T13:59:59;7.80;99.90
13409;DHT22;6775;49.574;11.170;2024-03-07T14:02:57;7.80;99.90
13409;DHT22;6775;49.574;11.170;2024-03-07T14:06:01;7.70;99.90
13409;DHT22;6775;49.574;11.170;2024-03-07T14:12:41;7.70;99.90
13409;DHT22;6775;49.574;11.170;2024-03-07T14:15:57;7.70;99.90
13409;DHT22;6775;49.574;11.170;2024-03-07T14:22:30;7.70;99.90
13409;DHT22;6775;49.574;11.170;2024-03-07T14:28:52;7.60;99.90
13409;DHT22;6775;49.574;11.170;2024-03-07T14:31:30;7.50;99.90
13409;DHT22;6775;49.574;11.170;2024-03-07T14:34:08;7.40;99.90
13409;DHT22;6775;49.574;11.170;2024-03-07T14:36:45;7.40;99.90
13409;DHT22;6775;49.574;11.170;2024-03-07T14:39:19;7.30;99.90
13409;DHT22;6775;49.574;11.170;2024-03-07T14:41:53;7.30;99.90
13409;DHT22;6775;49.574;11.170;2024-03-07T14:44:25;7.30;99.90
13409;DHT22;6775;49.574;11.170;2024-03-07T14:46:58;7.30;99.90
13409;DHT22;6775;49.574;11.170;2024-03-07T14:49:33;7.30;99.90
13409;DHT22;6775;49.574;11.170;2024-03-07T14:52:03;7.30;99.90
13409;DHT22;6775;49.574;11.170;2024-03-07T14:54:39;7.20;99.90
13409;DHT22;6775;49.574;11.170;2024-03-07T14:57:08;7.10;99.90
13409;DHT22;6775;49.574;11.170;2024-03-07T14:59:38;7.00;99.90
13409;DHT22;6775;49.574;11.170;2024-03-07T15:02:08;7.00;99.90
13409;DHT22;6775;49.574;11.170;2024-03-07T15:04:39;7.10;99.90
13409;DHT22;6775;49.574;11.170;2024-03-07T15:07:09;7.10;99.90
13409;DHT22;6775;49.574;11.170;2024-03-07T15:09:39;7.10;99.90
13409;DHT22;6775;49.574;11.170;2024-03-07T15:12:07;7.10;99.90
13409;DHT22;6775;49.574;11.170;2024-03-07T15:14:36;7.00;99.90
13409;DHT22;6775;49.574;11.170;2024-03-07T15:17:07;7.10;99.90
13409;DHT22;6775;49.574;11.170;2024-03-07T15:19:36;7.10;99.90
13409;DHT22;6775;49.574;11.170;2024-03-07T15:22:04;7.10;99.90
13409;DHT22;6775;49.574;11.170;2024-03-07T15:24:34;7.10;99.90
13409;DHT22;6775;49.574;11.170;2024-03-07T15:27:05;7.10;99.90
13409;DHT22;6775;49.574;11.170;2024-03-07T15:29:34;7.10;99.90
13409;DHT22;6775;49.574;11.170;2024-03-07T15:32:04;7.20;99.90
13409;DHT22;6775;49.574;11.170;2024-03-07T15:34:36;7.10;99.90
13409;DHT22;6775;49.574;11.170;2024-03-07T15:37:04;7.10;99.90
13409;DHT22;6775;49.574;11.170;2024-03-07T15:39:34;7.10;99.90
13409;DHT22;6775;49.574;11.170;2024-03-07T15:42:07;7.10;99.90
13409;DHT22;6775;49.574;11.170;2024-03-07T15:44:38;7.00;99.90
13409;DHT22;6775;49.574;11.170;2024-03-07T15:47:10;7.00;99.90
13409;DHT22;6775;49.574;11.170;2024-03-07T15:49:38;6.90;99.90
13409;DHT22;6775;49.574;11.170;2024-03-07T15:52:08;6.90;99.90
13409;DHT22;6775;49.574;11.170;2024-03-07T15:54:40;6.90;99.90
13409;DHT22;6775;49.574;11.170;2024-03-07T15:57:10;6.90;99.90
13409;DHT22;6775;49.574;11.170;2024-03-07T15:59:42;6.90;99.90
13409;DHT22;6775;49.574;11.170;2024-03-07T16:02:12;6.90;99.90
13409;DHT22;6775;49.574;11.170;2024-03-07T16:04:41;6.80;99.90
13409;DHT22;6775;49.574;11.170;2024-03-07T16:07:10;6.80;99.90
13409;DHT22;6775;49.574;11.170;2024-03-07T16:09:38;6.80;99.90
13409;DHT22;6775;49.574;11.170;2024-03-07T16:12:07;6.70;99.90
13409;DHT22;6775;49.574;11.170;2024-03-07T16:14:38;6.70;99.90
13409;DHT22;6775;49.574;11.170;2024-03-07T16:17:06;6.70;99.90
13409;DHT22;6775;49.574;11.170;2024-03-07T16:19:35;6.70;99.90